sensor_id;sensor_type;location;lat;lon;timestamp;P1;durP1;ratioP1;P2;durP2;ratioP2
58360;SDS011;44164;44.954;10.068;2023-03-01T00:02:26;5.20;;;4.10;;
58360;SDS011;44164;44.954;10.068;2023-03-01T00:04:52;5.47;;;4.40;;
58360;SDS011;44164;44.954;10.068;2023-03-01T00:07:18;5.07;;;4.40;;
58360;SDS011;44164;44.954;10.068;2023-03-01T00:09:44;5.43;;;3.80;;
58360;SDS011;44164;44.954;10.068;2023-03-01T00:12:11;7.05;;;3.97;;
58360;SDS011;44164;44.954;10.068;2023-03-01T00:14:37;6.45;;;4.38;;
58360;SDS011;44164;44.954;10.068;2023-03-01T00:17:04;7.43;;;4.50;;
58360;SDS011;44164;44.954;10.068;2023-03-01T00:19:30;7.28;;;4.30;;
58360;SDS011;44164;44.954;10.068;2023-03-01T00:21:58;6.55;;;4.82;;
58360;SDS011;44164;44.954;10.068;2023-03-01T00:24:24;5.13;;;4.05;;
58360;SDS011;44164;44.954;10.068;2023-03-01T00:26:52;7.43;;;4.80;;
58360;SDS011;44164;44.954;10.068;2023-03-01T00:29:21;7.07;;;4.72;;
58360;SDS011;44164;44.954;10.068;2023-03-01T00:31:48;7.03;;;5.10;;
58360;SDS011;44164;44.954;10.068;2023-03-01T00:34:14;6.57;;;4.65;;
58360;SDS011;44164;44.954;10.068;2023-03-01T00:36:41;6.63;;;4.85;;
58360;SDS011;44164;44.954;10.068;2023-03-01T00:39:09;5.45;;;4.47;;
58360;SDS011;44164;44.954;10.068;2023-03-01T00:41:37;6.75;;;4.72;;
58360;SDS011;44164;44.954;10.068;2023-03-01T00:44:03;7.25;;;5.28;;
58360;SDS011;44164;44.954;10.068;2023-03-01T00:46:29;5.88;;;4.03;;
58360;SDS011;44164;44.954;10.068;2023-03-01T00:48:56;6.28;;;4.75;;
58360;SDS011;44164;44.954;10.068;2023-03-01T00:51:26;6.68;;;5.18;;
58360;SDS011;44164;44.954;10.068;2023-03-01T00:53:53;5.72;;;4.60;;
58360;SDS011;44164;44.954;10.068;2023-03-01T00:56:20;6.32;;;5.05;;
58360;SDS011;44164;44.954;10.068;2023-03-01T00:58:47;5.50;;;4.50;;
58360;SDS011;44164;44.954;10.068;2023-03-01T01:01:14;5.07;;;4.35;;
58360;SDS011;44164;44.954;10.068;2023-03-01T01:03:48;7.35;;;5.05;;
58360;SDS011;44164;44.954;10.068;2023-03-01T01:06:20;5.38;;;4.30;;
58360;SDS011;44164;44.954;10.068;2023-03-01T01:08:57;5.70;;;4.47;;
58360;SDS011;44164;44.954;10.068;2023-03-01T01:11:24;7.45;;;5.35;;
58360;SDS011;44164;44.954;10.068;2023-03-01T01:13:52;6.75;;;5.32;;
58360;SDS011;44164;44.954;10.068;2023-03-01T01:16:19;5.82;;;4.32;;
58360;SDS011;44164;44.954;10.068;2023-03-01T01:18:46;7.53;;;5.05;;
58360;SDS011;44164;44.954;10.068;2023-03-01T01:21:14;6.70;;;4.40;;
58360;SDS011;44164;44.954;10.068;2023-03-01T01:23:42;7.65;;;4.30;;
58360;SDS011;44164;44.954;10.068;2023-03-01T01:26:10;6.70;;;4.65;;
58360;SDS011;44164;44.954;10.068;2023-03-01T01:28:38;6.88;;;4.60;;
58360;SDS011;44164;44.954;10.068;2023-03-01T01:31:05;5.68;;;4.57;;
58360;SDS011;44164;44.954;10.068;2023-03-01T01:33:31;5.68;;;4.20;;
58360;SDS011;44164;44.954;10.068;2023-03-01T01:35:58;6.20;;;4.72;;
58360;SDS011;44164;44.954;10.068;2023-03-01T01:38:24;6.55;;;5.30;;
58360;SDS011;44164;44.954;10.068;2023-03-01T01:40:50;7.00;;;5.07;;
58360;SDS011;44164;44.954;10.068;2023-03-01T01:43:28;5.75;;;4.45;;
58360;SDS011;44164;44.954;10.068;2023-03-01T01:45:57;5.75;;;4.28;;
58360;SDS011;44164;44.954;10.068;2023-03-01T01:48:27;6.75;;;5.00;;
58360;SDS011;44164;44.954;10.068;2023-03-01T01:51:06;6.68;;;4.97;;
58360;SDS011;44164;44.954;10.068;2023-03-01T01:53:36;6.05;;;4.40;;
58360;SDS011;44164;44.954;10.068;2023-03-01T01:56:03;6.07;;;4.57;;
58360;SDS011;44164;44.954;10.068;2023-03-01T01:58:33;6.28;;;4.88;;
58360;SDS011;44164;44.954;10.068;2023-03-01T02:00:59;6.30;;;4.65;;
58360;SDS011;44164;44.954;10.068;2023-03-01T02:03:31;5.70;;;4.55;;
58360;SDS011;44164;44.954;10.068;2023-03-01T02:06:46;5.22;;;4.25;;
58360;SDS011;44164;44.954;10.068;2023-03-01T02:08:55;5.88;;;4.47;;
58360;SDS011;44164;44.954;10.068;2023-03-01T02:11:25;5.32;;;4.32;;
58360;SDS011;44164;44.954;10.068;2023-03-01T02:17:39;5.28;;;4.25;;
58360;SDS011;44164;44.954;10.068;2023-03-01T02:20:19;5.57;;;4.43;;
58360;SDS011;44164;44.954;10.068;2023-03-01T02:22:52;6.03;;;4.32;;
58360;SDS011;44164;44.954;10.068;2023-03-01T02:25:24;6.25;;;5.00;;
58360;SDS011;44164;44.954;10.068;2023-03-01T02:27:58;5.82;;;4.68;;
58360;SDS011;44164;44.954;10.068;2023-03-01T02:30:29;6.15;;;4.78;;
58360;SDS011;44164;44.954;10.068;2023-03-01T02:32:56;5.68;;;4.75;;
58360;SDS011;44164;44.954;10.068;2023-03-01T02:35:35;5.88;;;4.22;;
58360;SDS011;44164;44.954;10.068;2023-03-01T02:38:03;5.65;;;4.35;;
58360;SDS011;44164;44.954;10.068;2023-03-01T02:40:33;5.78;;;4.95;;
58360;SDS011;44164;44.954;10.068;2023-03-01T02:43:00;5.72;;;4.20;;
58360;SDS011;44164;44.954;10.068;2023-03-01T02:45:26;6.05;;;4.60;;
58360;SDS011;44164;44.954;10.068;2023-03-01T02:47:53;4.95;;;4.25;;
58360;SDS011;44164;44.954;10.068;2023-03-01T02:55:42;5.88;;;4.60;;
58360;SDS011;44164;44.954;10.068;2023-03-01T02:58:09;5.45;;;4.43;;
58360;SDS011;44164;44.954;10.068;2023-03-01T03:00:36;5.05;;;4.50;;
58360;SDS011;44164;44.954;10.068;2023-03-01T03:03:15;6.70;;;5.10;;
58360;SDS011;44164;44.954;10.068;2023-03-01T03:05:42;6.00;;;4.90;;
58360;SDS011;44164;44.954;10.068;2023-03-01T03:08:09;5.28;;;4.40;;
58360;SDS011;44164;44.954;10.068;2023-03-01T03:10:38;5.95;;;5.13;;
58360;SDS011;44164;44.954;10.068;2023-03-01T03:13:10;6.38;;;4.60;;
58360;SDS011;44164;44.954;10.068;2023-03-01T03:15:38;6.72;;;4.55;;
58360;SDS011;44164;44.954;10.068;2023-03-01T03:18:07;6.63;;;4.63;;
58360;SDS011;44164;44.954;10.068;2023-03-01T03:20:35;4.65;;;4.10;;
58360;SDS011;44164;44.954;10.068;2023-03-01T03:23:01;6.53;;;4.55;;
58360;SDS011;44164;44.954;10.068;2023-03-01T03:25:28;5.40;;;4.35;;
58360;SDS011;44164;44.954;10.068;2023-03-01T03:27:55;4.95;;;4.05;;
58360;SDS011;44164;44.954;10.068;2023-03-01T03:30:26;5.60;;;4.15;;
58360;SDS011;44164;44.954;10.068;2023-03-01T03:32:53;5.35;;;4.47;;
58360;SDS011;44164;44.954;10.068;2023-03-01T03:35:20;5.43;;;4.22;;
58360;SDS011;44164;44.954;10.068;2023-03-01T03:37:48;5.25;;;3.92;;
58360;SDS011;44164;44.954;10.068;2023-03-01T03:43:06;5.45;;;4.13;;
58360;SDS011;44164;44.954;10.068;2023-03-01T03:45:34;6.95;;;5.25;;
58360;SDS011;44164;44.954;10.068;2023-03-01T03:48:01;4.88;;;4.15;;
58360;SDS011;44164;44.954;10.068;2023-03-01T03:50:28;5.15;;;4.53;;
58360;SDS011;44164;44.954;10.068;2023-03-01T03:52:55;5.80;;;4.10;;
58360;SDS011;44164;44.954;10.068;2023-03-01T03:55:21;5.32;;;4.30;;
58360;SDS011;44164;44.954;10.068;2023-03-01T03:57:47;5.25;;;4.55;;
58360;SDS011;44164;44.954;10.068;2023-03-01T04:00:18;6.45;;;4.75;;
58360;SDS011;44164;44.954;10.068;2023-03-01T04:02:46;5.07;;;4.07;;
58360;SDS011;44164;44.954;10.068;2023-03-01T04:05:14;5.30;;;4.50;;
58360;SDS011;44164;44.954;10.068;2023-03-01T04:10:08;5.63;;;4.25;;
58360;SDS011;44164;44.954;10.068;2023-03-01T04:12:36;5.68;;;4.25;;
58360;SDS011;44164;44.954;10.068;2023-03-01T04:15:03;5.05;;;4.20;;
58360;SDS011;44164;44.954;10.068;2023-03-01T04:17:39;6.45;;;4.75;;
58360;SDS011;44164;44.954;10.068;2023-03-01T04:20:10;5.20;;;4.32;;
58360;SDS011;44164;44.954;10.068;2023-03-01T04:22:39;5.30;;;4.55;;
58360;SDS011;44164;44.954;10.068;2023-03-01T04:25:06;5.95;;;4.65;;
58360;SDS011;44164;44.954;10.068;2023-03-01T04:27:33;5.20;;;4.70;;
58360;SDS011;44164;44.954;10.068;2023-03-01T04:29:59;5.72;;;4.57;;
58360;SDS011;44164;44.954;10.068;2023-03-01T04:32:26;4.88;;;4.00;;
58360;SDS011;44164;44.954;10.068;2023-03-01T04:34:52;5.55;;;4.40;;
58360;SDS011;44164;44.954;10.068;2023-03-01T04:37:18;5.30;;;4.13;;
58360;SDS011;44164;44.954;10.068;2023-03-01T04:39:44;4.93;;;3.97;;
58360;SDS011;44164;44.954;10.068;2023-03-01T04:42:16;6.72;;;4.63;;
58360;SDS011;44164;44.954;10.068;2023-03-01T04:44:43;6.20;;;4.80;;
58360;SDS011;44164;44.954;10.068;2023-03-01T04:47:09;6.18;;;4.93;;
58360;SDS011;44164;44.954;10.068;2023-03-01T04:49:35;5.85;;;4.63;;
58360;SDS011;44164;44.954;10.068;2023-03-01T04:52:02;6.00;;;5.03;;
58360;SDS011;44164;44.954;10.068;2023-03-01T04:54:32;7.00;;;4.50;;
58360;SDS011;44164;44.954;10.068;2023-03-01T04:57:00;5.45;;;4.15;;
58360;SDS011;44164;44.954;10.068;2023-03-01T04:59:27;6.20;;;4.77;;
58360;SDS011;44164;44.954;10.068;2023-03-01T05:01:54;7.13;;;4.18;;
58360;SDS011;44164;44.954;10.068;2023-03-01T05:04:26;6.95;;;4.78;;
58360;SDS011;44164;44.954;10.068;2023-03-01T05:06:52;5.30;;;4.25;;
58360;SDS011;44164;44.954;10.068;2023-03-01T05:09:19;5.80;;;4.70;;
58360;SDS011;44164;44.954;10.068;2023-03-01T05:11:45;5.88;;;4.60;;
58360;SDS011;44164;44.954;10.068;2023-03-01T05:14:11;6.85;;;4.18;;
58360;SDS011;44164;44.954;10.068;2023-03-01T05:16:37;5.50;;;4.00;;
58360;SDS011;44164;44.954;10.068;2023-03-01T05:19:03;4.72;;;3.97;;
58360;SDS011;44164;44.954;10.068;2023-03-01T05:21:37;6.28;;;4.35;;
58360;SDS011;44164;44.954;10.068;2023-03-01T05:24:27;6.00;;;4.50;;
58360;SDS011;44164;44.954;10.068;2023-03-01T05:26:53;7.40;;;4.35;;
58360;SDS011;44164;44.954;10.068;2023-03-01T05:29:20;6.07;;;4.63;;
58360;SDS011;44164;44.954;10.068;2023-03-01T05:31:54;5.13;;;4.63;;
58360;SDS011;44164;44.954;10.068;2023-03-01T05:34:25;5.57;;;4.45;;
58360;SDS011;44164;44.954;10.068;2023-03-01T05:36:52;6.10;;;4.60;;
58360;SDS011;44164;44.954;10.068;2023-03-01T05:39:19;5.53;;;4.18;;
58360;SDS011;44164;44.954;10.068;2023-03-01T05:44:13;5.35;;;4.25;;
58360;SDS011;44164;44.954;10.068;2023-03-01T05:46:39;5.78;;;4.38;;
58360;SDS011;44164;44.954;10.068;2023-03-01T05:49:05;5.82;;;4.07;;
58360;SDS011;44164;44.954;10.068;2023-03-01T05:51:31;6.15;;;4.63;;
58360;SDS011;44164;44.954;10.068;2023-03-01T05:53:59;5.05;;;4.43;;
58360;SDS011;44164;44.954;10.068;2023-03-01T05:56:25;5.43;;;4.25;;
58360;SDS011;44164;44.954;10.068;2023-03-01T05:58:51;6.10;;;4.72;;
58360;SDS011;44164;44.954;10.068;2023-03-01T06:01:17;6.30;;;4.65;;
58360;SDS011;44164;44.954;10.068;2023-03-01T06:03:43;5.55;;;4.10;;
58360;SDS011;44164;44.954;10.068;2023-03-01T06:06:09;5.68;;;4.43;;
58360;SDS011;44164;44.954;10.068;2023-03-01T06:08:36;6.88;;;4.40;;
58360;SDS011;44164;44.954;10.068;2023-03-01T06:11:02;6.93;;;4.63;;
58360;SDS011;44164;44.954;10.068;2023-03-01T06:13:28;5.82;;;3.88;;
58360;SDS011;44164;44.954;10.068;2023-03-01T06:15:55;4.30;;;3.60;;
58360;SDS011;44164;44.954;10.068;2023-03-01T06:18:21;7.00;;;4.55;;
58360;SDS011;44164;44.954;10.068;2023-03-01T06:20:54;4.90;;;3.88;;
58360;SDS011;44164;44.954;10.068;2023-03-01T06:23:22;4.85;;;3.70;;
58360;SDS011;44164;44.954;10.068;2023-03-01T06:25:48;6.23;;;4.50;;
58360;SDS011;44164;44.954;10.068;2023-03-01T06:28:15;8.38;;;4.35;;
58360;SDS011;44164;44.954;10.068;2023-03-01T06:30:41;5.15;;;3.97;;
58360;SDS011;44164;44.954;10.068;2023-03-01T06:33:08;6.15;;;4.78;;
58360;SDS011;44164;44.954;10.068;2023-03-01T06:35:34;5.15;;;4.53;;
58360;SDS011;44164;44.954;10.068;2023-03-01T06:38:01;6.22;;;5.05;;
58360;SDS011;44164;44.954;10.068;2023-03-01T06:40:28;7.63;;;5.05;;
58360;SDS011;44164;44.954;10.068;2023-03-01T06:42:56;5.25;;;4.05;;
58360;SDS011;44164;44.954;10.068;2023-03-01T06:45:23;6.05;;;4.57;;
58360;SDS011;44164;44.954;10.068;2023-03-01T06:47:50;7.68;;;4.90;;
58360;SDS011;44164;44.954;10.068;2023-03-01T06:50:16;9.80;;;5.22;;
58360;SDS011;44164;44.954;10.068;2023-03-01T06:52:43;5.32;;;4.72;;
58360;SDS011;44164;44.954;10.068;2023-03-01T06:55:11;9.13;;;5.57;;
58360;SDS011;44164;44.954;10.068;2023-03-01T06:57:39;7.40;;;4.60;;
58360;SDS011;44164;44.954;10.068;2023-03-01T07:00:05;6.00;;;4.70;;
58360;SDS011;44164;44.954;10.068;2023-03-01T07:02:32;6.07;;;4.78;;
58360;SDS011;44164;44.954;10.068;2023-03-01T07:04:58;7.28;;;5.15;;
58360;SDS011;44164;44.954;10.068;2023-03-01T07:07:25;7.55;;;4.88;;
58360;SDS011;44164;44.954;10.068;2023-03-01T07:09:51;12.30;;;5.70;;
58360;SDS011;44164;44.954;10.068;2023-03-01T07:12:18;8.30;;;5.65;;
58360;SDS011;44164;44.954;10.068;2023-03-01T07:14:44;9.20;;;5.47;;
58360;SDS011;44164;44.954;10.068;2023-03-01T07:17:11;5.65;;;4.45;;
58360;SDS011;44164;44.954;10.068;2023-03-01T07:19:37;6.72;;;4.63;;
58360;SDS011;44164;44.954;10.068;2023-03-01T07:22:03;6.47;;;4.88;;
58360;SDS011;44164;44.954;10.068;2023-03-01T07:24:30;6.45;;;4.85;;
58360;SDS011;44164;44.954;10.068;2023-03-01T07:26:56;6.45;;;5.07;;
58360;SDS011;44164;44.954;10.068;2023-03-01T07:29:22;6.40;;;4.70;;
58360;SDS011;44164;44.954;10.068;2023-03-01T07:31:48;6.95;;;4.72;;
58360;SDS011;44164;44.954;10.068;2023-03-01T07:34:14;6.97;;;4.75;;
58360;SDS011;44164;44.954;10.068;2023-03-01T07:36:40;6.55;;;5.00;;
58360;SDS011;44164;44.954;10.068;2023-03-01T07:41:35;8.70;;;5.22;;
58360;SDS011;44164;44.954;10.068;2023-03-01T07:44:01;7.82;;;4.60;;
58360;SDS011;44164;44.954;10.068;2023-03-01T07:46:27;7.65;;;5.05;;
58360;SDS011;44164;44.954;10.068;2023-03-01T07:48:53;6.07;;;4.72;;
58360;SDS011;44164;44.954;10.068;2023-03-01T07:51:19;7.03;;;4.50;;
58360;SDS011;44164;44.954;10.068;2023-03-01T07:53:46;7.05;;;4.90;;
58360;SDS011;44164;44.954;10.068;2023-03-01T07:56:14;5.53;;;4.28;;
58360;SDS011;44164;44.954;10.068;2023-03-01T07:58:43;6.50;;;4.60;;
58360;SDS011;44164;44.954;10.068;2023-03-01T08:01:11;7.32;;;5.55;;
58360;SDS011;44164;44.954;10.068;2023-03-01T08:03:39;8.13;;;4.50;;
58360;SDS011;44164;44.954;10.068;2023-03-01T08:06:06;7.10;;;4.82;;
58360;SDS011;44164;44.954;10.068;2023-03-01T08:08:34;6.47;;;4.55;;
58360;SDS011;44164;44.954;10.068;2023-03-01T08:11:02;5.05;;;3.90;;
58360;SDS011;44164;44.954;10.068;2023-03-01T08:13:29;7.00;;;4.38;;
58360;SDS011;44164;44.954;10.068;2023-03-01T08:16:03;5.20;;;4.25;;
58360;SDS011;44164;44.954;10.068;2023-03-01T08:18:30;8.63;;;5.10;;
58360;SDS011;44164;44.954;10.068;2023-03-01T08:21:01;6.07;;;4.28;;
58360;SDS011;44164;44.954;10.068;2023-03-01T08:23:30;6.30;;;4.07;;
58360;SDS011;44164;44.954;10.068;2023-03-01T08:26:04;5.38;;;4.53;;
58360;SDS011;44164;44.954;10.068;2023-03-01T08:28:35;4.72;;;3.80;;
58360;SDS011;44164;44.954;10.068;2023-03-01T08:31:01;5.28;;;4.53;;
58360;SDS011;44164;44.954;10.068;2023-03-01T08:33:28;5.38;;;4.30;;
58360;SDS011;44164;44.954;10.068;2023-03-01T08:36:04;6.25;;;4.90;;
58360;SDS011;44164;44.954;10.068;2023-03-01T08:38:33;5.03;;;4.03;;
58360;SDS011;44164;44.954;10.068;2023-03-01T08:41:00;6.65;;;4.43;;
58360;SDS011;44164;44.954;10.068;2023-03-01T08:43:27;5.40;;;4.22;;
58360;SDS011;44164;44.954;10.068;2023-03-01T08:45:53;5.35;;;4.45;;
58360;SDS011;44164;44.954;10.068;2023-03-01T08:48:19;6.25;;;4.45;;
58360;SDS011;44164;44.954;10.068;2023-03-01T08:50:46;5.68;;;4.38;;
58360;SDS011;44164;44.954;10.068;2023-03-01T08:53:12;5.25;;;4.15;;
58360;SDS011;44164;44.954;10.068;2023-03-01T08:55:38;5.30;;;4.35;;
58360;SDS011;44164;44.954;10.068;2023-03-01T08:58:04;5.45;;;4.07;;
58360;SDS011;44164;44.954;10.068;2023-03-01T09:00:30;5.45;;;4.18;;
58360;SDS011;44164;44.954;10.068;2023-03-01T09:02:56;4.80;;;3.70;;
58360;SDS011;44164;44.954;10.068;2023-03-01T09:05:22;4.63;;;4.07;;
58360;SDS011;44164;44.954;10.068;2023-03-01T09:07:48;6.25;;;4.07;;
58360;SDS011;44164;44.954;10.068;2023-03-01T09:10:15;6.03;;;4.40;;
58360;SDS011;44164;44.954;10.068;2023-03-01T09:12:41;5.22;;;4.15;;
58360;SDS011;44164;44.954;10.068;2023-03-01T09:15:07;4.53;;;3.83;;
58360;SDS011;44164;44.954;10.068;2023-03-01T09:17:34;7.50;;;4.65;;
58360;SDS011;44164;44.954;10.068;2023-03-01T09:20:03;5.30;;;4.00;;
58360;SDS011;44164;44.954;10.068;2023-03-01T09:22:33;5.72;;;4.28;;
58360;SDS011;44164;44.954;10.068;2023-03-01T09:25:00;6.45;;;4.53;;
58360;SDS011;44164;44.954;10.068;2023-03-01T09:27:26;4.65;;;3.78;;
58360;SDS011;44164;44.954;10.068;2023-03-01T09:29:52;6.05;;;4.75;;
58360;SDS011;44164;44.954;10.068;2023-03-01T09:32:18;7.22;;;4.60;;
58360;SDS011;44164;44.954;10.068;2023-03-01T09:34:44;8.20;;;4.47;;
58360;SDS011;44164;44.954;10.068;2023-03-01T09:37:29;7.25;;;4.85;;
58360;SDS011;44164;44.954;10.068;2023-03-01T09:39:57;5.28;;;4.15;;
58360;SDS011;44164;44.954;10.068;2023-03-01T09:42:23;7.60;;;4.32;;
58360;SDS011;44164;44.954;10.068;2023-03-01T09:44:57;4.53;;;3.97;;
58360;SDS011;44164;44.954;10.068;2023-03-01T09:47:29;4.72;;;3.85;;
58360;SDS011;44164;44.954;10.068;2023-03-01T09:50:11;4.85;;;4.00;;
58360;SDS011;44164;44.954;10.068;2023-03-01T09:53:39;6.75;;;4.70;;
58360;SDS011;44164;44.954;10.068;2023-03-01T09:55:41;4.97;;;4.25;;
58360;SDS011;44164;44.954;10.068;2023-03-01T10:00:59;6.65;;;3.88;;
58360;SDS011;44164;44.954;10.068;2023-03-01T10:03:42;5.13;;;3.88;;
58360;SDS011;44164;44.954;10.068;2023-03-01T10:19:27;5.25;;;4.40;;
58360;SDS011;44164;44.954;10.068;2023-03-01T10:22:39;5.20;;;4.15;;
58360;SDS011;44164;44.954;10.068;2023-03-01T10:24:57;6.28;;;4.18;;
58360;SDS011;44164;44.954;10.068;2023-03-01T10:27:25;5.65;;;4.40;;
58360;SDS011;44164;44.954;10.068;2023-03-01T10:32:49;5.93;;;4.18;;
58360;SDS011;44164;44.954;10.068;2023-03-01T10:35:22;5.22;;;3.90;;
58360;SDS011;44164;44.954;10.068;2023-03-01T10:40:33;5.05;;;3.85;;
58360;SDS011;44164;44.954;10.068;2023-03-01T10:43:01;4.63;;;3.85;;
58360;SDS011;44164;44.954;10.068;2023-03-01T10:48:05;5.18;;;3.90;;
58360;SDS011;44164;44.954;10.068;2023-03-01T10:50:45;5.00;;;3.63;;
58360;SDS011;44164;44.954;10.068;2023-03-01T10:53:20;4.43;;;4.00;;
58360;SDS011;44164;44.954;10.068;2023-03-01T10:55:56;4.50;;;3.85;;
58360;SDS011;44164;44.954;10.068;2023-03-01T10:58:23;4.40;;;3.78;;
58360;SDS011;44164;44.954;10.068;2023-03-01T11:00:51;4.82;;;3.88;;
58360;SDS011;44164;44.954;10.068;2023-03-01T11:03:21;4.45;;;3.28;;
58360;SDS011;44164;44.954;10.068;2023-03-01T11:05:57;5.38;;;3.92;;
58360;SDS011;44164;44.954;10.068;2023-03-01T11:08:42;4.60;;;4.05;;
58360;SDS011;44164;44.954;10.068;2023-03-01T11:13:35;6.00;;;3.75;;
58360;SDS011;44164;44.954;10.068;2023-03-01T11:16:10;7.70;;;4.07;;
58360;SDS011;44164;44.954;10.068;2023-03-01T11:18:37;5.53;;;3.75;;
58360;SDS011;44164;44.954;10.068;2023-03-01T11:21:04;5.20;;;3.28;;
58360;SDS011;44164;44.954;10.068;2023-03-01T11:23:31;4.63;;;3.50;;
58360;SDS011;44164;44.954;10.068;2023-03-01T11:25:59;4.93;;;3.80;;
58360;SDS011;44164;44.954;10.068;2023-03-01T11:28:27;4.38;;;3.42;;
58360;SDS011;44164;44.954;10.068;2023-03-01T11:30:55;6.40;;;3.67;;
58360;SDS011;44164;44.954;10.068;2023-03-01T11:38:32;4.93;;;3.67;;
58360;SDS011;44164;44.954;10.068;2023-03-01T11:41:23;4.82;;;3.63;;
58360;SDS011;44164;44.954;10.068;2023-03-01T12:14:51;5.88;;;3.67;;
58360;SDS011;44164;44.954;10.068;2023-03-01T12:17:52;5.00;;;3.63;;
58360;SDS011;44164;44.954;10.068;2023-03-01T12:26:02;6.80;;;3.80;;
58360;SDS011;44164;44.954;10.068;2023-03-01T12:34:08;6.97;;;3.92;;
58360;SDS011;44164;44.954;10.068;2023-03-01T12:53:46;5.57;;;3.77;;
58360;SDS011;44164;44.954;10.068;2023-03-01T12:56:15;6.63;;;3.90;;
58360;SDS011;44164;44.954;10.068;2023-03-01T13:20:44;4.88;;;3.72;;
58360;SDS011;44164;44.954;10.068;2023-03-01T13:30:58;4.78;;;3.38;;
58360;SDS011;44164;44.954;10.068;2023-03-01T13:35:55;3.88;;;3.10;;
58360;SDS011;44164;44.954;10.068;2023-03-01T13:44:26;5.22;;;3.70;;
58360;SDS011;44164;44.954;10.068;2023-03-01T13:49:27;10.00;;;4.13;;
58360;SDS011;44164;44.954;10.068;2023-03-01T13:51:54;5.22;;;3.50;;
58360;SDS011;44164;44.954;10.068;2023-03-01T13:54:31;4.70;;;3.75;;
58360;SDS011;44164;44.954;10.068;2023-03-01T13:56:58;5.13;;;3.50;;
58360;SDS011;44164;44.954;10.068;2023-03-01T13:59:25;6.03;;;4.13;;
58360;SDS011;44164;44.954;10.068;2023-03-01T14:01:52;5.90;;;4.10;;
58360;SDS011;44164;44.954;10.068;2023-03-01T14:09:54;6.93;;;4.03;;
58360;SDS011;44164;44.954;10.068;2023-03-01T14:20:28;5.38;;;3.38;;
58360;SDS011;44164;44.954;10.068;2023-03-01T14:22:57;6.20;;;3.88;;
58360;SDS011;44164;44.954;10.068;2023-03-01T14:25:28;4.43;;;3.30;;
58360;SDS011;44164;44.954;10.068;2023-03-01T14:27:58;5.55;;;3.53;;
58360;SDS011;44164;44.954;10.068;2023-03-01T14:30:27;4.97;;;3.42;;
58360;SDS011;44164;44.954;10.068;2023-03-01T14:32:58;5.65;;;4.13;;
58360;SDS011;44164;44.954;10.068;2023-03-01T14:35:29;5.97;;;4.15;;
58360;SDS011;44164;44.954;10.068;2023-03-01T14:37:57;6.80;;;3.88;;
58360;SDS011;44164;44.954;10.068;2023-03-01T14:40:26;6.53;;;4.22;;
58360;SDS011;44164;44.954;10.068;2023-03-01T14:42:52;4.95;;;3.97;;
58360;SDS011;44164;44.954;10.068;2023-03-01T14:45:20;6.10;;;4.18;;
58360;SDS011;44164;44.954;10.068;2023-03-01T14:47:46;6.65;;;3.85;;
58360;SDS011;44164;44.954;10.068;2023-03-01T14:52:45;5.93;;;3.75;;
58360;SDS011;44164;44.954;10.068;2023-03-01T14:55:19;5.57;;;4.03;;
58360;SDS011;44164;44.954;10.068;2023-03-01T14:57:48;5.55;;;3.97;;
58360;SDS011;44164;44.954;10.068;2023-03-01T15:00:33;7.05;;;3.80;;
58360;SDS011;44164;44.954;10.068;2023-03-01T15:03:01;6.95;;;3.95;;
58360;SDS011;44164;44.954;10.068;2023-03-01T15:05:35;7.07;;;3.75;;
58360;SDS011;44164;44.954;10.068;2023-03-01T15:08:02;8.45;;;3.90;;
58360;SDS011;44164;44.954;10.068;2023-03-01T15:10:30;6.13;;;4.35;;
58360;SDS011;44164;44.954;10.068;2023-03-01T15:13:14;5.80;;;4.00;;
58360;SDS011;44164;44.954;10.068;2023-03-01T15:15:47;7.65;;;3.78;;
58360;SDS011;44164;44.954;10.068;2023-03-01T15:18:19;6.72;;;4.63;;
58360;SDS011;44164;44.954;10.068;2023-03-01T15:20:47;7.20;;;4.28;;
58360;SDS011;44164;44.954;10.068;2023-03-01T15:23:25;4.35;;;3.38;;
58360;SDS011;44164;44.954;10.068;2023-03-01T15:25:53;9.10;;;4.00;;
58360;SDS011;44164;44.954;10.068;2023-03-01T15:28:37;4.85;;;3.38;;
58360;SDS011;44164;44.954;10.068;2023-03-01T15:33:46;3.97;;;3.28;;
58360;SDS011;44164;44.954;10.068;2023-03-01T15:38:56;4.72;;;3.50;;
58360;SDS011;44164;44.954;10.068;2023-03-01T15:41:24;4.18;;;3.67;;
58360;SDS011;44164;44.954;10.068;2023-03-01T15:43:53;4.97;;;3.70;;
58360;SDS011;44164;44.954;10.068;2023-03-01T15:48:50;6.22;;;3.63;;
58360;SDS011;44164;44.954;10.068;2023-03-01T15:51:21;5.50;;;3.40;;
58360;SDS011;44164;44.954;10.068;2023-03-01T15:53:54;6.03;;;3.40;;
58360;SDS011;44164;44.954;10.068;2023-03-01T15:56:20;4.45;;;3.25;;
58360;SDS011;44164;44.954;10.068;2023-03-01T15:58:46;4.45;;;3.22;;
58360;SDS011;44164;44.954;10.068;2023-03-01T16:01:13;4.97;;;3.40;;
58360;SDS011;44164;44.954;10.068;2023-03-01T16:03:40;6.63;;;3.67;;
58360;SDS011;44164;44.954;10.068;2023-03-01T16:06:08;4.57;;;3.38;;
58360;SDS011;44164;44.954;10.068;2023-03-01T16:08:38;3.97;;;3.35;;
58360;SDS011;44164;44.954;10.068;2023-03-01T16:11:05;4.53;;;3.00;;
58360;SDS011;44164;44.954;10.068;2023-03-01T16:13:39;4.20;;;3.35;;
58360;SDS011;44164;44.954;10.068;2023-03-01T16:16:06;5.10;;;3.63;;
58360;SDS011;44164;44.954;10.068;2023-03-01T16:18:33;5.10;;;2.90;;
58360;SDS011;44164;44.954;10.068;2023-03-01T16:20:59;4.07;;;3.30;;
58360;SDS011;44164;44.954;10.068;2023-03-01T16:23:26;4.75;;;3.20;;
58360;SDS011;44164;44.954;10.068;2023-03-01T16:25:52;4.13;;;3.50;;
58360;SDS011;44164;44.954;10.068;2023-03-01T16:28:18;4.00;;;3.33;;
58360;SDS011;44164;44.954;10.068;2023-03-01T16:30:47;5.28;;;3.35;;
58360;SDS011;44164;44.954;10.068;2023-03-01T16:33:16;4.68;;;3.25;;
58360;SDS011;44164;44.954;10.068;2023-03-01T16:35:42;4.28;;;3.05;;
58360;SDS011;44164;44.954;10.068;2023-03-01T16:38:09;6.22;;;4.07;;
58360;SDS011;44164;44.954;10.068;2023-03-01T16:40:37;5.03;;;3.58;;
58360;SDS011;44164;44.954;10.068;2023-03-01T16:43:03;5.40;;;3.67;;
58360;SDS011;44164;44.954;10.068;2023-03-01T16:45:33;4.18;;;3.17;;
58360;SDS011;44164;44.954;10.068;2023-03-01T16:48:05;3.88;;;2.97;;
58360;SDS011;44164;44.954;10.068;2023-03-01T16:50:31;4.78;;;3.88;;
58360;SDS011;44164;44.954;10.068;2023-03-01T16:52:57;3.55;;;3.17;;
58360;SDS011;44164;44.954;10.068;2023-03-01T16:55:24;5.60;;;3.63;;
58360;SDS011;44164;44.954;10.068;2023-03-01T16:57:50;4.50;;;3.17;;
58360;SDS011;44164;44.954;10.068;2023-03-01T17:00:16;4.47;;;3.08;;
58360;SDS011;44164;44.954;10.068;2023-03-01T17:02:43;8.75;;;3.05;;
58360;SDS011;44164;44.954;10.068;2023-03-01T17:05:09;5.97;;;3.13;;
58360;SDS011;44164;44.954;10.068;2023-03-01T17:07:37;4.70;;;2.92;;
58360;SDS011;44164;44.954;10.068;2023-03-01T17:10:04;4.78;;;3.25;;
58360;SDS011;44164;44.954;10.068;2023-03-01T17:12:34;4.93;;;3.45;;
58360;SDS011;44164;44.954;10.068;2023-03-01T17:15:00;5.07;;;3.17;;
58360;SDS011;44164;44.954;10.068;2023-03-01T17:17:26;4.35;;;3.00;;
58360;SDS011;44164;44.954;10.068;2023-03-01T17:19:53;4.15;;;3.00;;
58360;SDS011;44164;44.954;10.068;2023-03-01T17:22:19;4.35;;;3.25;;
58360;SDS011;44164;44.954;10.068;2023-03-01T17:24:45;4.50;;;2.92;;
58360;SDS011;44164;44.954;10.068;2023-03-01T17:27:11;5.20;;;3.03;;
58360;SDS011;44164;44.954;10.068;2023-03-01T17:29:38;3.15;;;2.63;;
58360;SDS011;44164;44.954;10.068;2023-03-01T17:32:05;4.53;;;3.00;;
58360;SDS011;44164;44.954;10.068;2023-03-01T17:34:32;4.07;;;2.97;;
58360;SDS011;44164;44.954;10.068;2023-03-01T17:36:59;4.03;;;2.97;;
58360;SDS011;44164;44.954;10.068;2023-03-01T17:39:25;4.35;;;3.13;;